الصفحة الرئيسية
METAR-TAF:

METAR-TAF

مطار :

Rota, جزر ماريانا, الولايات المتحدة

دائرة عرض: 14-11N, خط طول: 145-15E, ارتفاع: 185 متر

مراقبة الطقس الحالي

تاريخ ووقت الإصدار 7ساعات و 16 دقيقة قبل الساعة 09:50UTC
ريح 10 عقدة من الشرق
درجة الحرارة 26°درجة مئوية
الرطوبة 79%
ضغط 1009 hPa
الرؤية: 11.3 كم
غيوم مفككة على ارتفاع 1500 قدم

METAR: PGRO 150950Z COR 08010KT 7SM BKN015 26/22 A2981 RMK LAST

زمن: 03:06 (17:06 UTC)

توقعات

تاريخ ووقت الإصدار 11ساعات و 36 دقيقة قبل الساعة 05:30UTC
التوقعات صالحة من15 الساعة 06 UTC إلى 16 الساعة 06 UTC
ريح 11 عقدة من الشرق
الرؤية: 10 كم
غيوم قليلة على ارتفاع 2000 قدم
من 15 الساعة 1200 UTC
ريح 10 عقدة من الشرق
الرؤية: 10 كم
غيوم متفرقة على ارتفاع 2000 قدم
غيوم مفككة على ارتفاع 5000 قدم
زخات في الجوار
من 15 الساعة 2200 UTC
ريح 14 عقدة من الشرق
الرؤية: 10 كم
غيوم متفرقة على ارتفاع 2000 قدم
غيوم متفرقة على ارتفاع 5000 قدم
زخات في الجوار

TAF: PGRO 150530Z 1506/1606 09011KT P6SM FEW020 FM151200 09010KT P6SM VCSH SCT020 BKN050 FM152200 09014KT P6SM VCSH SCT020 SCT050

أرصاد الطقس والتوقعات من أكثر من 4000 مطار (تقارير الطقس للمطار METAR والتنبؤ بالطقس بالمطارTAF).

المحطات المتاحة هي النقط الصفراء والحمراء على الخريطة.

حرك المؤشر فوق النقطة لمعرفة اسم المحطة.

ثم انقر لمعرفة أرصاد وتوقعات الطقس.

لتغيير الخارطة: اضغط على الأزرار الخضراء مع رمز الصليب الأسود للتكبير. على الزر الأخضر مع شرطة للتصغير، أو على الأسهم الخضراء للخرائط المجاورة.


METAR-TAF: